createdAt,value
2023-04-16T00:01:34.714Z,4.60
2023-04-16T00:04:01.601Z,6.40
2023-04-16T00:06:28.706Z,6.07
2023-04-16T00:08:55.711Z,7.20
2023-04-16T00:11:22.350Z,6.03
2023-04-16T00:13:49.207Z,9.43
2023-04-16T00:16:16.187Z,8.20
2023-04-16T00:18:42.997Z,18.95
2023-04-16T00:21:09.667Z,17.27
2023-04-16T00:23:36.390Z,16.27
2023-04-16T00:26:03.020Z,9.57
2023-04-16T00:28:29.749Z,8.65
2023-04-16T00:30:56.385Z,9.73
2023-04-16T00:33:23.883Z,10.50
2023-04-16T00:35:51.256Z,9.57
2023-04-16T00:38:18.212Z,9.77
2023-04-16T00:40:44.918Z,9.30
2023-04-16T00:43:11.953Z,9.10
2023-04-16T00:45:38.659Z,8.60
2023-04-16T00:48:06.091Z,8.00
2023-04-16T00:50:33.724Z,7.60
2023-04-16T00:53:01.856Z,8.18
2023-04-16T00:55:28.601Z,6.60
2023-04-16T00:57:55.393Z,5.82
2023-04-16T01:00:22.343Z,5.85
2023-04-16T01:02:49.198Z,6.28
2023-04-16T01:05:16.147Z,6.45
2023-04-16T01:07:42.727Z,5.82
2023-04-16T01:10:09.435Z,5.88
2023-04-16T01:12:36.053Z,5.32
2023-04-16T01:15:03.492Z,5.45
2023-04-16T01:17:30.365Z,5.38
2023-04-16T01:20:01.014Z,5.25
2023-04-16T01:22:30.627Z,4.97
2023-04-16T01:24:57.266Z,5.35
2023-04-16T01:27:23.868Z,5.65
2023-04-16T01:29:50.608Z,5.53
2023-04-16T01:32:17.187Z,5.65
2023-04-16T01:34:43.855Z,4.88
2023-04-16T01:37:11.392Z,4.70
2023-04-16T01:39:38.019Z,4.55
2023-04-16T01:42:04.827Z,4.72
2023-04-16T01:44:31.421Z,5.57
2023-04-16T01:46:58.242Z,4.88
2023-04-16T01:49:27.352Z,4.38
2023-04-16T01:51:53.980Z,4.55
2023-04-16T01:54:20.810Z,4.70
2023-04-16T01:56:47.647Z,4.57
2023-04-16T01:59:14.260Z,4.50
2023-04-16T02:01:42.073Z,3.78
2023-04-16T02:04:09.121Z,4.35
2023-04-16T02:06:35.824Z,4.10
2023-04-16T02:09:02.420Z,4.43
2023-04-16T02:11:29.536Z,4.30
2023-04-16T02:13:56.147Z,4.45
2023-04-16T02:16:22.838Z,4.78
2023-04-16T02:18:49.631Z,4.80
2023-04-16T02:21:16.334Z,4.72
2023-04-16T02:23:43.001Z,4.55
2023-04-16T02:26:09.694Z,4.90
2023-04-16T02:28:36.339Z,4.43
2023-04-16T02:31:02.983Z,4.47
2023-04-16T02:33:30.502Z,4.90
2023-04-16T02:35:57.160Z,5.20
2023-04-16T02:38:23.804Z,4.65
2023-04-16T02:40:50.813Z,5.03
2023-04-16T02:43:17.439Z,5.22
2023-04-16T02:45:44.852Z,4.82
2023-04-16T02:48:11.742Z,4.95
2023-04-16T02:50:38.416Z,5.88
2023-04-16T02:53:06.764Z,5.65
2023-04-16T02:55:33.529Z,5.03
2023-04-16T02:58:00.728Z,5.70
2023-04-16T03:00:27.450Z,5.85
2023-04-16T03:02:54.576Z,5.43
2023-04-16T03:05:21.906Z,4.97
2023-04-16T03:07:50.660Z,6.07
2023-04-16T03:10:17.682Z,6.85
2023-04-16T03:12:44.298Z,7.07
2023-04-16T03:15:11.172Z,6.07
2023-04-16T03:17:38.082Z,5.20
2023-04-16T03:20:05.539Z,6.25
2023-04-16T03:22:32.111Z,5.70
2023-04-16T03:24:58.836Z,5.32
2023-04-16T03:27:25.627Z,5.00
2023-04-16T03:29:52.327Z,4.82
2023-04-16T03:32:19.276Z,5.13
2023-04-16T03:34:46.178Z,4.95
2023-04-16T03:37:12.961Z,4.82
2023-04-16T03:39:39.818Z,6.00
2023-04-16T03:42:06.648Z,6.32
2023-04-16T03:44:33.336Z,6.18
2023-04-16T03:47:00.359Z,7.32
2023-04-16T03:49:28.126Z,5.80
2023-04-16T03:51:54.732Z,6.22
2023-04-16T03:54:22.878Z,6.53
2023-04-16T03:56:49.922Z,6.05
2023-04-16T03:59:16.602Z,5.88
2023-04-16T04:01:43.614Z,5.57
2023-04-16T04:04:11.095Z,5.05
2023-04-16T04:06:37.845Z,6.20
2023-04-16T04:09:06.030Z,5.18
2023-04-16T04:11:32.878Z,5.70
2023-04-16T04:13:59.522Z,5.72
2023-04-16T04:16:26.664Z,5.85
2023-04-16T04:18:53.375Z,5.13
2023-04-16T04:21:20.033Z,5.30
2023-04-16T04:23:47.252Z,5.18
2023-04-16T04:26:13.902Z,5.60
2023-04-16T04:28:40.771Z,5.45
2023-04-16T04:31:07.597Z,5.80
2023-04-16T04:33:34.270Z,6.20
2023-04-16T04:36:01.047Z,5.40
2023-04-16T04:38:27.755Z,6.50
2023-04-16T04:40:54.408Z,6.32
2023-04-16T04:43:21.171Z,5.85
2023-04-16T04:45:49.425Z,6.10
2023-04-16T04:48:16.661Z,6.18
2023-04-16T04:50:45.551Z,6.00
2023-04-16T04:53:14.987Z,6.30
2023-04-16T04:55:42.010Z,5.97
2023-04-16T04:58:09.109Z,5.85
2023-04-16T05:00:37.383Z,5.47
2023-04-16T05:03:06.405Z,6.10
2023-04-16T05:05:33.328Z,5.63
2023-04-16T05:08:00.173Z,6.75
2023-04-16T05:10:27.278Z,5.45
2023-04-16T05:12:53.973Z,5.53
2023-04-16T05:15:20.687Z,5.68
2023-04-16T05:17:47.540Z,6.25
2023-04-16T05:20:14.416Z,55.40
2023-04-16T05:22:41.412Z,43.35
2023-04-16T05:25:08.507Z,22.23
2023-04-16T05:27:35.427Z,16.58
2023-04-16T05:30:02.330Z,10.13
2023-04-16T05:32:29.029Z,10.38
2023-04-16T05:34:55.974Z,8.98
2023-04-16T05:37:22.619Z,8.13
2023-04-16T05:39:49.682Z,8.70
2023-04-16T05:42:16.459Z,7.82
2023-04-16T05:44:43.167Z,7.75
2023-04-16T05:47:09.891Z,8.07
2023-04-16T05:49:39.778Z,10.40
2023-04-16T05:52:07.438Z,6.97
2023-04-16T05:54:34.169Z,4.10
2023-04-16T05:57:01.921Z,4.22
2023-04-16T05:59:29.402Z,5.57
2023-04-16T06:01:56.154Z,4.57
2023-04-16T06:04:22.941Z,4.63
2023-04-16T06:06:49.711Z,4.65
2023-04-16T06:09:16.713Z,4.72
2023-04-16T06:11:43.357Z,5.07
2023-04-16T06:14:10.023Z,4.93
2023-04-16T06:16:36.636Z,4.25
2023-04-16T06:19:03.286Z,4.85
2023-04-16T06:21:30.018Z,4.38
2023-04-16T06:23:56.595Z,4.28
2023-04-16T06:26:23.351Z,4.93
2023-04-16T06:28:50.552Z,5.20
2023-04-16T06:31:17.433Z,4.38
2023-04-16T06:33:44.277Z,3.92
2023-04-16T06:36:11.688Z,4.20
2023-04-16T06:38:38.480Z,3.85
2023-04-16T06:41:05.459Z,4.18
2023-04-16T06:43:33.841Z,4.20
2023-04-16T06:46:00.713Z,3.88
2023-04-16T06:48:27.868Z,3.67
2023-04-16T06:50:56.098Z,3.70
2023-04-16T06:53:23.623Z,3.10
2023-04-16T06:55:50.512Z,2.85
2023-04-16T06:58:17.325Z,2.90
2023-04-16T07:00:44.040Z,2.70
2023-04-16T07:03:11.283Z,3.00
2023-04-16T07:05:38.551Z,2.67
2023-04-16T07:08:05.400Z,3.17
2023-04-16T07:10:32.361Z,3.00
2023-04-16T07:13:01.553Z,3.22
2023-04-16T07:15:28.901Z,2.83
2023-04-16T07:17:55.736Z,2.90
2023-04-16T07:20:22.651Z,2.70
2023-04-16T07:22:49.587Z,2.80
2023-04-16T07:25:16.303Z,3.08
2023-04-16T07:27:43.083Z,3.08
2023-04-16T07:30:09.977Z,3.33
2023-04-16T07:32:36.625Z,2.92
2023-04-16T07:35:03.951Z,3.03
2023-04-16T07:37:31.020Z,2.95
2023-04-16T07:39:58.537Z,2.60
2023-04-16T07:42:25.190Z,2.50
2023-04-16T07:44:51.826Z,2.25
2023-04-16T07:47:19.284Z,2.15
2023-04-16T07:49:45.941Z,2.65
2023-04-16T07:52:12.791Z,2.45
2023-04-16T07:54:39.634Z,2.25
2023-04-16T07:57:06.258Z,2.22
2023-04-16T07:59:32.892Z,1.95
2023-04-16T08:02:00.113Z,2.20
2023-04-16T08:04:29.401Z,1.88
2023-04-16T08:06:56.269Z,1.83
2023-04-16T08:09:24.337Z,2.10
2023-04-16T08:11:51.268Z,2.00
2023-04-16T08:14:17.977Z,1.63
2023-04-16T08:16:44.647Z,2.00
2023-04-16T08:19:11.526Z,2.17
2023-04-16T08:21:38.509Z,2.20
2023-04-16T08:24:05.498Z,2.40
2023-04-16T08:26:32.501Z,2.33
2023-04-16T08:28:59.192Z,2.53
2023-04-16T08:31:26.335Z,2.75
2023-04-16T08:33:53.147Z,2.50
2023-04-16T08:36:19.991Z,2.28
2023-04-16T08:38:47.005Z,2.30
2023-04-16T08:41:14.133Z,2.58
2023-04-16T08:43:45.188Z,2.60
2023-04-16T08:46:12.549Z,2.45
2023-04-16T08:48:43.709Z,2.47
2023-04-16T08:51:12.256Z,2.30
2023-04-16T08:53:59.990Z,2.22
2023-04-16T08:56:27.355Z,2.25
2023-04-16T08:58:55.292Z,2.50
2023-04-16T09:01:22.888Z,2.45
2023-04-16T09:03:50.006Z,2.55
2023-04-16T09:06:18.357Z,2.33
2023-04-16T09:08:46.271Z,2.30
2023-04-16T09:11:18.329Z,2.50
2023-04-16T09:13:46.782Z,2.22
2023-04-16T09:16:14.441Z,2.20
2023-04-16T09:18:41.469Z,2.15
2023-04-16T09:21:11.363Z,2.30
2023-04-16T09:23:41.307Z,2.25
2023-04-16T09:26:08.040Z,2.20
2023-04-16T09:28:53.622Z,1.90
2023-04-16T09:31:20.433Z,2.28
2023-04-16T09:34:02.616Z,2.30
2023-04-16T09:36:30.140Z,2.03
2023-04-16T09:38:58.104Z,2.05
2023-04-16T09:41:39.965Z,1.92
2023-04-16T09:44:06.587Z,2.20
2023-04-16T09:46:35.248Z,2.17
2023-04-16T09:49:16.147Z,1.77
2023-04-16T09:51:44.197Z,1.80
2023-04-16T09:54:11.277Z,2.17
2023-04-16T09:56:46.103Z,1.83
2023-04-16T09:59:23.795Z,2.10
2023-04-16T10:01:53.713Z,1.85
2023-04-16T10:04:53.526Z,2.08
2023-04-16T10:07:21.185Z,2.00
2023-04-16T10:09:48.903Z,1.95
2023-04-16T10:12:16.115Z,1.73
2023-04-16T10:14:43.360Z,2.00
2023-04-16T10:17:10.402Z,1.70
2023-04-16T10:19:37.679Z,2.10
2023-04-16T10:22:06.525Z,1.77
2023-04-16T10:24:34.675Z,1.80
2023-04-16T10:27:01.633Z,1.52
2023-04-16T10:29:30.224Z,1.75
2023-04-16T10:31:58.442Z,1.67
2023-04-16T10:34:28.309Z,1.50
2023-04-16T10:36:56.209Z,1.58
2023-04-16T10:39:24.874Z,1.50
2023-04-16T10:42:07.516Z,1.60
2023-04-16T10:44:34.253Z,1.50
2023-04-16T10:47:00.939Z,1.95
2023-04-16T10:49:27.886Z,1.40
2023-04-16T10:51:58.783Z,1.73
2023-04-16T10:54:28.364Z,1.85
2023-04-16T10:57:02.203Z,2.10
2023-04-16T10:59:32.810Z,1.70
2023-04-16T11:02:01.948Z,1.42
2023-04-16T11:04:30.672Z,1.58
2023-04-16T11:07:02.083Z,1.38
2023-04-16T11:09:50.588Z,1.92
2023-04-16T11:12:19.054Z,1.40
2023-04-16T11:14:51.560Z,1.77
2023-04-16T11:17:19.859Z,1.70
2023-04-16T11:19:47.058Z,1.80
2023-04-16T11:22:17.539Z,1.98
2023-04-16T11:24:45.780Z,1.75
2023-04-16T11:27:13.968Z,1.50
2023-04-16T11:29:41.566Z,1.63
2023-04-16T11:32:08.809Z,1.60
2023-04-16T11:34:43.817Z,1.48
2023-04-16T11:37:11.184Z,1.10
2023-04-16T11:39:49.370Z,1.13
2023-04-16T11:42:23.240Z,1.33
2023-04-16T11:44:54.611Z,1.13
2023-04-16T11:47:22.986Z,1.92
2023-04-16T11:49:50.257Z,1.20
2023-04-16T11:52:30.941Z,1.10
2023-04-16T11:54:58.398Z,1.00
2023-04-16T11:57:30.561Z,1.40
2023-04-16T12:00:01.508Z,1.23
2023-04-16T12:02:50.276Z,1.27
2023-04-16T12:05:35.144Z,1.80
2023-04-16T12:08:07.391Z,1.15
2023-04-16T12:10:52.775Z,1.60
2023-04-16T12:13:19.919Z,1.90
2023-04-16T12:15:57.126Z,1.77
2023-04-16T12:18:28.654Z,1.70
2023-04-16T12:20:55.543Z,1.88
2023-04-16T12:23:34.007Z,1.67
2023-04-16T12:26:10.940Z,1.50
2023-04-16T12:28:38.629Z,1.50
2023-04-16T12:31:06.137Z,1.40
2023-04-16T12:33:32.873Z,1.90
2023-04-16T12:35:59.873Z,1.30
2023-04-16T12:38:27.294Z,1.80
2023-04-16T12:40:57.106Z,1.77
2023-04-16T12:43:24.452Z,1.67
2023-04-16T12:45:51.523Z,1.30
2023-04-16T12:48:18.204Z,1.40
2023-04-16T12:50:44.906Z,1.40
2023-04-16T12:53:12.086Z,1.50
2023-04-16T12:55:38.818Z,1.40
2023-04-16T12:58:05.473Z,1.60
2023-04-16T13:00:32.253Z,1.50
2023-04-16T13:02:58.983Z,1.40
2023-04-16T13:05:26.501Z,1.30
2023-04-16T13:07:53.215Z,1.30
2023-04-16T13:10:21.576Z,1.45
2023-04-16T13:12:48.980Z,1.65
2023-04-16T13:15:15.882Z,1.48
2023-04-16T13:17:42.613Z,1.98
2023-04-16T13:20:09.976Z,1.90
2023-04-16T13:22:36.925Z,1.45
2023-04-16T13:25:03.862Z,1.77
2023-04-16T13:27:32.386Z,1.73
2023-04-16T13:29:59.013Z,1.95
2023-04-16T13:32:25.779Z,1.98
2023-04-16T13:34:52.533Z,2.08
2023-04-16T13:37:19.174Z,1.73
2023-04-16T13:39:45.989Z,1.55
2023-04-16T13:42:12.891Z,1.70
2023-04-16T13:44:39.496Z,1.50
2023-04-16T13:47:06.317Z,1.92
2023-04-16T13:49:36.176Z,1.60
2023-04-16T13:52:03.136Z,1.90
2023-04-16T13:54:29.874Z,1.80
2023-04-16T13:56:56.864Z,1.70
2023-04-16T13:59:23.668Z,1.90
2023-04-16T14:01:51.179Z,1.50
2023-04-16T14:04:18.365Z,1.50
2023-04-16T14:06:45.284Z,1.95
2023-04-16T14:09:12.498Z,1.67
2023-04-16T14:11:39.517Z,1.90
2023-04-16T14:14:06.560Z,1.63
2023-04-16T14:16:33.907Z,1.83
2023-04-16T14:19:00.752Z,1.80
2023-04-16T14:21:27.544Z,1.73
2023-04-16T14:23:54.157Z,2.30
2023-04-16T14:26:21.131Z,2.42
2023-04-16T14:28:47.932Z,2.30
2023-04-16T14:31:14.627Z,2.08
2023-04-16T14:33:42.067Z,2.30
2023-04-16T14:36:09.045Z,2.28
2023-04-16T14:38:36.192Z,2.38
2023-04-16T14:41:03.068Z,2.03
2023-04-16T14:43:29.713Z,2.00
2023-04-16T14:45:58.697Z,1.90
2023-04-16T14:48:25.942Z,1.70
2023-04-16T14:50:53.767Z,1.52
2023-04-16T14:53:20.529Z,1.40
2023-04-16T14:55:47.737Z,1.42
2023-04-16T14:58:14.419Z,1.65
2023-04-16T15:00:41.604Z,1.58
2023-04-16T15:03:08.467Z,1.40
2023-04-16T15:05:35.844Z,1.42
2023-04-16T15:08:02.516Z,1.60
2023-04-16T15:10:30.045Z,1.38
2023-04-16T15:12:56.666Z,2.28
2023-04-16T15:15:23.282Z,1.50
2023-04-16T15:17:51.230Z,1.63
2023-04-16T15:20:18.017Z,1.52
2023-04-16T15:22:44.660Z,1.48
2023-04-16T15:25:11.872Z,1.45
2023-04-16T15:27:38.654Z,1.25
2023-04-16T15:30:06.532Z,1.55
2023-04-16T15:32:33.393Z,1.35
2023-04-16T15:35:03.549Z,1.55
2023-04-16T15:37:30.418Z,1.50
2023-04-16T15:39:57.564Z,1.30
2023-04-16T15:42:24.487Z,1.70
2023-04-16T15:44:51.191Z,1.40
2023-04-16T15:47:27.052Z,1.30
2023-04-16T15:49:58.126Z,1.20
2023-04-16T15:52:24.795Z,1.85
2023-04-16T15:54:51.472Z,2.08
2023-04-16T15:57:18.099Z,1.77
2023-04-16T15:59:59.316Z,1.90
2023-04-16T16:02:31.919Z,1.75
2023-04-16T16:05:00.330Z,2.90
2023-04-16T16:07:27.035Z,3.75
2023-04-16T16:09:53.712Z,2.70
2023-04-16T16:12:20.391Z,2.38
2023-04-16T16:14:47.777Z,1.90
2023-04-16T16:17:14.371Z,2.35
2023-04-16T16:19:41.317Z,1.95
2023-04-16T16:22:09.387Z,1.50
2023-04-16T16:24:36.308Z,1.38
2023-04-16T16:27:03.065Z,1.10
2023-04-16T16:29:29.773Z,1.30
2023-04-16T16:31:56.533Z,1.55
2023-04-16T16:34:23.278Z,1.35
2023-04-16T16:36:49.923Z,1.45
2023-04-16T16:39:16.572Z,1.17
2023-04-16T16:41:43.319Z,1.20
2023-04-16T16:44:10.373Z,1.45
2023-04-16T16:46:37.410Z,1.15
2023-04-16T16:49:06.018Z,1.77
2023-04-16T16:51:34.029Z,1.15
2023-04-16T16:54:00.891Z,1.30
2023-04-16T16:56:28.134Z,1.30
2023-04-16T16:58:54.883Z,1.05
2023-04-16T17:01:21.673Z,0.90
2023-04-16T17:03:48.506Z,1.10
2023-04-16T17:06:15.769Z,1.20
2023-04-16T17:08:42.573Z,1.10
2023-04-16T17:11:09.290Z,1.00
2023-04-16T17:13:36.170Z,1.20
2023-04-16T17:16:03.354Z,1.13
2023-04-16T17:18:30.062Z,1.20
2023-04-16T17:20:56.850Z,1.20
2023-04-16T17:23:23.901Z,1.70
2023-04-16T17:25:50.726Z,1.48
2023-04-16T17:28:17.452Z,1.35
2023-04-16T17:30:44.385Z,2.40
2023-04-16T17:33:11.424Z,2.10
2023-04-16T17:35:40.540Z,2.70
2023-04-16T17:38:07.247Z,2.10
2023-04-16T17:40:34.009Z,2.00
2023-04-16T17:43:00.655Z,2.15
2023-04-16T17:45:27.467Z,2.53
2023-04-16T17:47:54.194Z,2.50
2023-04-16T17:50:20.969Z,2.40
2023-04-16T17:52:47.716Z,2.50
2023-04-16T17:55:14.439Z,2.67
2023-04-16T17:57:41.248Z,2.78
2023-04-16T18:00:14.484Z,2.63
2023-04-16T18:02:41.549Z,2.38
2023-04-16T18:05:08.657Z,2.20
2023-04-16T18:07:36.662Z,2.10
2023-04-16T18:10:03.757Z,1.40
2023-04-16T18:12:30.667Z,1.55
2023-04-16T18:14:57.881Z,1.63
2023-04-16T18:17:24.790Z,1.50
2023-04-16T18:19:51.611Z,1.50
2023-04-16T18:22:18.401Z,1.33
2023-04-16T18:24:45.024Z,1.33
2023-04-16T18:27:14.099Z,1.30
2023-04-16T18:29:40.954Z,2.22
2023-04-16T18:32:11.951Z,2.17
2023-04-16T18:34:39.442Z,1.80
2023-04-16T18:37:06.920Z,2.35
2023-04-16T18:39:34.083Z,3.17
2023-04-16T18:42:01.476Z,2.83
2023-04-16T18:44:28.942Z,3.03
2023-04-16T18:46:58.473Z,2.80
2023-04-16T18:49:25.697Z,2.03
2023-04-16T18:51:55.932Z,2.20
2023-04-16T18:54:23.461Z,2.13
2023-04-16T18:56:50.160Z,1.83
2023-04-16T18:59:16.870Z,2.25
2023-04-16T19:01:44.226Z,2.20
2023-04-16T19:04:10.966Z,2.20
2023-04-16T19:06:37.928Z,2.03
2023-04-16T19:09:04.603Z,2.50
2023-04-16T19:11:31.230Z,2.20
2023-04-16T19:13:58.013Z,2.20
2023-04-16T19:16:24.911Z,6.50
2023-04-16T19:18:51.950Z,3.00
2023-04-16T19:21:18.593Z,2.85
2023-04-16T19:23:45.620Z,5.32
2023-04-16T19:26:12.411Z,4.32
2023-04-16T19:28:39.791Z,4.32
2023-04-16T19:31:06.657Z,3.97
2023-04-16T19:33:33.382Z,4.40
2023-04-16T19:36:00.510Z,4.20
2023-04-16T19:38:27.607Z,4.30
2023-04-16T19:40:55.592Z,3.75
2023-04-16T19:43:22.495Z,3.17
2023-04-16T19:45:53.658Z,2.78
2023-04-16T19:48:20.882Z,2.55
2023-04-16T19:50:48.280Z,2.83
2023-04-16T19:53:17.126Z,2.80
2023-04-16T19:55:44.404Z,2.20
2023-04-16T19:58:11.168Z,2.10
2023-04-16T20:00:47.548Z,2.10
2023-04-16T20:03:14.778Z,2.92
2023-04-16T20:05:41.662Z,2.22
2023-04-16T20:08:08.714Z,3.20
2023-04-16T20:10:35.498Z,2.00
2023-04-16T20:13:02.198Z,1.92
2023-04-16T20:15:28.995Z,2.72
2023-04-16T20:17:56.393Z,2.05
2023-04-16T20:20:23.670Z,3.03
2023-04-16T20:22:50.811Z,3.35
2023-04-16T20:25:19.539Z,4.10
2023-04-16T20:27:46.349Z,4.20
2023-04-16T20:30:14.178Z,4.70
2023-04-16T20:32:41.060Z,4.97
2023-04-16T20:35:10.821Z,5.30
2023-04-16T20:37:42.222Z,4.07
2023-04-16T20:40:09.984Z,4.00
2023-04-16T20:42:36.702Z,3.55
2023-04-16T20:45:03.623Z,4.55
2023-04-16T20:47:30.515Z,3.70
2023-04-16T20:49:58.206Z,3.35
2023-04-16T20:52:25.103Z,3.42
2023-04-16T20:54:52.366Z,3.38
2023-04-16T20:57:19.297Z,4.55
2023-04-16T20:59:46.326Z,3.08
2023-04-16T21:02:13.263Z,2.90
2023-04-16T21:04:40.618Z,2.83
2023-04-16T21:07:07.702Z,5.38
2023-04-16T21:09:34.734Z,6.43
2023-04-16T21:12:01.702Z,5.07
2023-04-16T21:14:30.029Z,3.10
2023-04-16T21:16:56.690Z,5.25
2023-04-16T21:19:23.462Z,3.35
2023-04-16T21:21:50.136Z,5.32
2023-04-16T21:24:16.879Z,4.47
2023-04-16T21:26:43.497Z,4.45
2023-04-16T21:29:13.276Z,3.50
2023-04-16T21:31:40.574Z,5.35
2023-04-16T21:34:07.322Z,5.35
2023-04-16T21:36:35.616Z,5.97
2023-04-16T21:39:02.824Z,6.30
2023-04-16T21:41:29.699Z,6.90
2023-04-16T21:43:56.658Z,4.10
2023-04-16T21:46:23.454Z,6.63
2023-04-16T21:48:50.894Z,6.28
2023-04-16T21:51:18.283Z,5.82
2023-04-16T21:53:45.479Z,5.43
2023-04-16T21:56:12.242Z,5.63
2023-04-16T21:58:39.022Z,6.60
2023-04-16T22:01:07.267Z,5.63
2023-04-16T22:03:40.317Z,5.25
2023-04-16T22:06:07.954Z,4.88
2023-04-16T22:08:35.069Z,5.28
2023-04-16T22:11:03.171Z,6.00
2023-04-16T22:13:32.673Z,6.88
2023-04-16T22:16:03.360Z,5.80
2023-04-16T22:18:32.950Z,3.85
2023-04-16T22:21:00.512Z,5.35
2023-04-16T22:23:40.179Z,4.97
2023-04-16T22:26:10.474Z,5.10
2023-04-16T22:28:40.168Z,5.32
2023-04-16T22:31:07.961Z,4.57
2023-04-16T22:33:38.160Z,4.10
2023-04-16T22:36:08.924Z,4.00
2023-04-16T22:38:40.536Z,3.45
2023-04-16T22:41:08.736Z,3.75
2023-04-16T22:43:38.764Z,3.22
2023-04-16T22:46:08.177Z,3.03
2023-04-16T22:48:39.738Z,3.42
2023-04-16T22:51:10.804Z,2.95
2023-04-16T22:53:40.976Z,3.40
2023-04-16T22:56:09.620Z,2.60
2023-04-16T22:58:41.041Z,2.92
2023-04-16T23:01:13.144Z,3.42
2023-04-16T23:03:43.273Z,3.90
2023-04-16T23:06:12.148Z,3.38
2023-04-16T23:08:41.856Z,3.45
2023-04-16T23:11:10.703Z,3.80
2023-04-16T23:13:39.941Z,2.90
2023-04-16T23:16:08.711Z,3.05
2023-04-16T23:18:38.545Z,3.17
2023-04-16T23:21:06.583Z,3.97
2023-04-16T23:23:35.602Z,3.83
2023-04-16T23:26:05.021Z,3.35
2023-04-16T23:28:34.517Z,4.50
2023-04-16T23:31:05.935Z,4.57
2023-04-16T23:33:37.045Z,4.20
2023-04-16T23:36:07.230Z,3.80
2023-04-16T23:38:36.935Z,3.97
2023-04-16T23:41:06.148Z,3.92
2023-04-16T23:43:35.654Z,3.60
2023-04-16T23:46:05.382Z,3.95
2023-04-16T23:48:33.986Z,3.80
2023-04-16T23:51:04.067Z,3.28
2023-04-16T23:53:34.503Z,3.13
2023-04-16T23:56:04.257Z,3.70
2023-04-16T23:58:32.209Z,4.00
